createdAt,value
2019-02-17T00:01:28.729Z,94.35
2019-02-17T00:03:57.751Z,92.89
2019-02-17T00:06:26.913Z,93.39
2019-02-17T00:08:59.286Z,93.30
2019-02-17T00:11:28.318Z,94.58
2019-02-17T00:13:57.444Z,94.08
2019-02-17T00:16:26.558Z,93.77
2019-02-17T00:18:55.668Z,92.66
2019-02-17T00:21:24.941Z,93.51
2019-02-17T00:26:33.570Z,96.09
2019-02-17T00:29:08.005Z,96.09
2019-02-17T00:31:37.085Z,96.81
2019-02-17T00:34:06.172Z,96.81
2019-02-17T00:36:35.457Z,95.31
2019-02-17T00:39:09.178Z,94.45
2019-02-17T00:41:38.310Z,95.36
2019-02-17T00:44:09.542Z,94.33
2019-02-17T00:46:38.550Z,93.43
2019-02-17T00:49:10.741Z,93.93
2019-02-17T00:51:39.757Z,93.88
2019-02-17T00:54:13.198Z,93.79
2019-02-17T00:56:42.275Z,95.17
2019-02-17T00:59:11.341Z,95.17
2019-02-17T01:01:40.368Z,95.55
2019-02-17T01:04:09.397Z,95.20
2019-02-17T01:06:38.405Z,94.85
2019-02-17T01:09:08.763Z,95.10
2019-02-17T01:11:37.829Z,94.49
2019-02-17T01:14:06.979Z,95.43
2019-02-17T01:16:36.037Z,94.11
2019-02-17T01:19:05.559Z,95.88
2019-02-17T01:21:36.777Z,94.62
2019-02-17T01:24:06.394Z,95.74
2019-02-17T01:26:35.394Z,96.13
2019-02-17T01:29:07.532Z,95.14
2019-02-17T01:31:36.639Z,93.96
2019-02-17T01:34:10.965Z,94.40
2019-02-17T01:36:40.125Z,95.54
2019-02-17T01:39:09.331Z,95.54
2019-02-17T01:41:38.470Z,96.64
2019-02-17T01:44:08.456Z,95.98
2019-02-17T01:46:38.504Z,97.05
2019-02-17T01:49:08.239Z,96.22
2019-02-17T01:51:37.289Z,96.22
2019-02-17T01:54:06.543Z,94.78
2019-02-17T01:56:37.897Z,96.33
2019-02-17T01:59:06.988Z,97.16
2019-02-17T02:01:35.976Z,97.94
2019-02-17T02:04:05.074Z,99.27
2019-02-17T02:06:34.090Z,98.06
2019-02-17T02:09:03.289Z,98.16
2019-02-17T02:11:32.383Z,98.16
2019-02-17T02:14:01.421Z,95.66
2019-02-17T02:16:30.573Z,96.57
2019-02-17T02:18:59.676Z,97.06
2019-02-17T02:21:28.769Z,98.09
2019-02-17T02:23:57.864Z,96.48
2019-02-17T02:26:26.935Z,98.46
2019-02-17T02:28:56.054Z,97.89
2019-02-17T02:31:25.096Z,98.35
2019-02-17T02:33:54.108Z,99.12
2019-02-17T02:36:24.651Z,97.64
2019-02-17T02:38:53.749Z,98.64
2019-02-17T02:41:33.849Z,98.41
2019-02-17T02:43:53.543Z,97.42
2019-02-17T02:46:22.673Z,96.46
2019-02-17T02:48:51.695Z,96.46
2019-02-17T02:51:20.773Z,96.07
2019-02-17T02:53:49.868Z,96.07
2019-02-17T02:56:18.883Z,97.02
2019-02-17T02:58:47.926Z,97.82
2019-02-17T03:01:16.952Z,98.39
2019-02-17T03:03:46.263Z,98.44
2019-02-17T03:06:28.247Z,97.07
2019-02-17T03:08:57.300Z,99.52
2019-02-17T03:11:26.338Z,97.85
2019-02-17T03:13:55.409Z,95.88
2019-02-17T03:16:24.499Z,97.96
2019-02-17T03:18:53.643Z,98.29
2019-02-17T03:21:22.650Z,97.91
2019-02-17T03:23:52.762Z,96.98
2019-02-17T03:26:21.816Z,96.83
2019-02-17T03:28:50.920Z,96.41
2019-02-17T03:31:19.953Z,97.90
2019-02-17T03:33:49.443Z,96.83
2019-02-17T03:36:18.432Z,96.30
2019-02-17T03:38:47.446Z,94.85
2019-02-17T03:41:16.443Z,95.21
2019-02-17T03:43:45.449Z,94.73
2019-02-17T03:46:14.586Z,95.50
2019-02-17T03:48:43.601Z,95.04
2019-02-17T03:51:12.822Z,94.17
2019-02-17T03:53:41.774Z,94.30
2019-02-17T03:56:10.862Z,94.45
2019-02-17T03:58:39.908Z,94.69
2019-02-17T04:01:08.974Z,93.62
2019-02-17T04:03:38.010Z,94.67
2019-02-17T04:06:07.072Z,93.44
2019-02-17T04:08:36.050Z,93.67
2019-02-17T04:11:05.155Z,92.86
2019-02-17T04:13:34.250Z,93.32
2019-02-17T04:16:03.374Z,93.73
2019-02-17T04:18:32.724Z,95.10
2019-02-17T04:21:01.853Z,95.10
2019-02-17T04:23:31.761Z,93.95
2019-02-17T04:26:00.929Z,93.15
2019-02-17T04:32:35.446Z,94.91
2019-02-17T04:41:42.381Z,95.73
2019-02-17T04:44:11.592Z,96.24
2019-02-17T04:46:40.701Z,96.41
2019-02-17T04:49:11.190Z,96.33
2019-02-17T04:51:40.261Z,96.20
2019-02-17T04:54:09.251Z,96.31
2019-02-17T04:56:38.777Z,96.08
2019-02-17T04:59:08.147Z,94.05
2019-02-17T05:01:37.233Z,95.30
2019-02-17T05:04:06.365Z,93.86
2019-02-17T05:06:35.453Z,94.12
2019-02-17T05:09:05.715Z,93.91
2019-02-17T05:11:35.012Z,93.91
2019-02-17T05:14:27.098Z,93.44
2019-02-17T05:21:03.843Z,94.35
2019-02-17T05:23:32.918Z,94.23
2019-02-17T05:26:01.934Z,94.40
2019-02-17T05:28:31.036Z,94.06
2019-02-17T05:31:00.125Z,94.06
2019-02-17T05:33:29.202Z,93.65
2019-02-17T05:35:58.240Z,93.29
2019-02-17T05:38:27.232Z,93.41
2019-02-17T05:40:56.339Z,93.88
2019-02-17T05:43:25.354Z,93.24
2019-02-17T05:45:54.373Z,93.59
2019-02-17T05:48:23.490Z,94.02
2019-02-17T05:50:52.559Z,93.89
2019-02-17T05:53:21.666Z,93.55
2019-02-17T05:55:52.222Z,93.46
2019-02-17T05:58:22.798Z,93.61
2019-02-17T06:01:02.986Z,93.87
2019-02-17T06:03:22.699Z,94.57
2019-02-17T06:05:51.723Z,94.11
2019-02-17T06:08:20.830Z,94.11
2019-02-17T06:10:49.846Z,94.22
2019-02-17T06:13:21.011Z,94.23
2019-02-17T06:15:50.021Z,94.21
2019-02-17T06:18:19.013Z,94.28
2019-02-17T06:20:48.062Z,93.98
2019-02-17T06:23:17.029Z,94.26
2019-02-17T06:25:46.106Z,93.89
2019-02-17T06:28:15.179Z,93.25
2019-02-17T06:30:44.250Z,93.23
2019-02-17T06:33:13.280Z,94.29
2019-02-17T06:35:42.301Z,93.81
2019-02-17T06:38:11.281Z,94.15
2019-02-17T06:40:40.305Z,94.22
2019-02-17T06:43:09.323Z,93.93
2019-02-17T06:45:38.404Z,93.80
2019-02-17T06:48:07.459Z,93.88
2019-02-17T06:50:36.551Z,94.14
2019-02-17T06:53:05.563Z,93.82
2019-02-17T06:55:53.494Z,93.14
2019-02-17T06:58:22.694Z,93.82
2019-02-17T07:00:54.019Z,93.71
2019-02-17T07:03:23.117Z,93.71
2019-02-17T07:06:03.324Z,94.33
2019-02-17T07:08:32.403Z,94.33
2019-02-17T07:11:01.557Z,94.69
2019-02-17T07:13:32.093Z,95.01
2019-02-17T07:16:01.187Z,94.30
2019-02-17T07:18:30.275Z,93.29
2019-02-17T07:20:59.337Z,93.29
2019-02-17T07:23:28.353Z,93.27
2019-02-17T07:25:57.440Z,93.59
2019-02-17T07:28:26.558Z,93.07
2019-02-17T07:30:55.963Z,92.82
2019-02-17T07:33:25.016Z,93.35
2019-02-17T07:35:56.490Z,93.35
2019-02-17T07:38:25.532Z,92.65
2019-02-17T07:40:54.553Z,92.43
2019-02-17T07:43:23.735Z,92.43
2019-02-17T07:45:52.772Z,93.29
2019-02-17T07:48:21.846Z,92.45
2019-02-17T07:50:50.893Z,91.57
2019-02-17T07:53:19.916Z,91.23
2019-02-17T07:55:50.600Z,91.56
2019-02-17T07:58:19.658Z,91.51
2019-02-17T08:00:48.748Z,91.68
2019-02-17T08:03:17.825Z,91.33
2019-02-17T08:05:46.888Z,91.23
2019-02-17T08:08:15.984Z,91.21
2019-02-17T08:10:45.154Z,91.00
2019-02-17T08:13:14.350Z,91.00
2019-02-17T08:15:44.531Z,90.59
2019-02-17T08:18:13.621Z,90.09
2019-02-17T08:20:42.683Z,89.32
2019-02-17T08:23:11.850Z,89.26
2019-02-17T08:25:41.034Z,89.21
2019-02-17T08:28:10.148Z,88.78
2019-02-17T08:30:39.199Z,88.81
2019-02-17T08:33:08.210Z,88.81
2019-02-17T08:35:37.233Z,88.41
2019-02-17T08:38:06.260Z,87.86
2019-02-17T08:40:35.270Z,89.01
2019-02-17T08:43:04.256Z,88.10
2019-02-17T08:45:33.371Z,87.84
2019-02-17T08:48:02.510Z,88.11
2019-02-17T08:50:31.549Z,88.05
2019-02-17T08:53:00.582Z,88.25
2019-02-17T08:55:29.797Z,87.57
2019-02-17T08:57:59.309Z,86.88
2019-02-17T09:00:28.319Z,85.75
2019-02-17T09:02:57.383Z,85.49
2019-02-17T09:05:26.408Z,85.09
2019-02-17T09:07:55.513Z,84.83
2019-02-17T09:10:24.604Z,83.94
2019-02-17T09:12:53.592Z,83.95
2019-02-17T09:15:22.622Z,84.46
2019-02-17T09:17:51.721Z,84.46
2019-02-17T09:20:26.026Z,84.09
2019-02-17T09:22:55.148Z,83.28
2019-02-17T09:25:24.219Z,82.02
2019-02-17T09:27:53.270Z,82.16
2019-02-17T09:30:22.399Z,81.42
2019-02-17T09:32:54.905Z,79.85
2019-02-17T09:35:23.958Z,78.24
2019-02-17T09:37:52.959Z,76.33
2019-02-17T09:40:21.969Z,75.89
2019-02-17T09:42:51.048Z,75.87
2019-02-17T09:45:22.380Z,75.87
2019-02-17T09:47:51.479Z,73.93
2019-02-17T09:50:20.685Z,73.08
2019-02-17T09:52:50.778Z,72.96
2019-02-17T09:55:19.947Z,70.48
2019-02-17T09:57:48.978Z,69.39
2019-02-17T10:00:18.232Z,69.15
2019-02-17T10:02:47.228Z,67.76
2019-02-17T10:05:16.307Z,67.76
2019-02-17T10:07:45.338Z,66.12
2019-02-17T10:10:14.813Z,66.37
2019-02-17T10:12:43.930Z,66.35
2019-02-17T10:15:13.530Z,65.82
2019-02-17T10:17:42.778Z,65.74
2019-02-17T10:20:12.028Z,66.57
2019-02-17T10:22:41.189Z,64.92
2019-02-17T10:25:10.415Z,66.25
2019-02-17T10:27:39.523Z,64.80
2019-02-17T10:30:10.564Z,65.10
2019-02-17T10:32:39.527Z,64.93
2019-02-17T10:35:08.650Z,62.36
2019-02-17T10:37:40.079Z,62.29
2019-02-17T10:40:11.152Z,63.60
2019-02-17T10:42:40.137Z,63.60
2019-02-17T10:45:11.026Z,63.61
2019-02-17T10:47:41.657Z,62.86
2019-02-17T10:50:10.852Z,61.66
2019-02-17T10:52:39.933Z,62.31
2019-02-17T10:55:09.234Z,61.18
2019-02-17T10:57:39.660Z,61.26
2019-02-17T11:00:12.347Z,60.97
2019-02-17T11:02:47.001Z,61.00
2019-02-17T11:05:12.270Z,61.84
2019-02-17T11:07:41.246Z,62.16
2019-02-17T11:10:10.503Z,61.67
2019-02-17T11:12:39.579Z,62.53
2019-02-17T11:15:10.747Z,62.67
2019-02-17T11:17:41.252Z,61.75
2019-02-17T11:20:10.632Z,61.47
2019-02-17T11:22:39.660Z,60.67
2019-02-17T11:25:08.933Z,60.92
2019-02-17T11:27:38.097Z,60.56
2019-02-17T11:30:09.463Z,59.48
2019-02-17T11:32:38.599Z,60.36
2019-02-17T11:35:08.459Z,59.13
2019-02-17T11:37:37.557Z,59.13
2019-02-17T11:40:08.745Z,59.54
2019-02-17T11:42:40.262Z,58.18
2019-02-17T11:45:12.991Z,58.18
2019-02-17T11:47:41.981Z,58.87
2019-02-17T11:50:11.328Z,58.12
2019-02-17T11:52:40.528Z,58.12
2019-02-17T11:55:10.954Z,58.36
2019-02-17T11:57:49.556Z,59.16
2019-02-17T12:00:20.185Z,57.98
2019-02-17T12:02:50.266Z,58.29
2019-02-17T12:05:19.485Z,58.41
2019-02-17T12:07:50.359Z,57.33
2019-02-17T12:10:19.512Z,57.33
2019-02-17T12:12:48.691Z,56.22
2019-02-17T12:15:17.871Z,55.16
2019-02-17T12:17:48.862Z,55.10
2019-02-17T12:20:37.974Z,54.57
2019-02-17T12:23:15.644Z,54.13
2019-02-17T12:26:16.113Z,53.50
2019-02-17T12:28:49.801Z,53.95
2019-02-17T12:31:25.804Z,53.95
2019-02-17T12:33:54.849Z,53.04
2019-02-17T12:36:23.923Z,51.34
2019-02-17T12:38:52.970Z,51.66
2019-02-17T12:41:22.043Z,50.00
2019-02-17T12:43:51.074Z,50.00
2019-02-17T12:46:20.106Z,49.73
2019-02-17T12:48:49.505Z,49.61
2019-02-17T12:51:24.305Z,47.98
2019-02-17T12:53:55.789Z,48.47
2019-02-17T12:56:25.827Z,47.67
2019-02-17T12:58:56.151Z,47.73
2019-02-17T13:01:25.171Z,47.84
2019-02-17T13:03:54.195Z,46.70
2019-02-17T13:06:23.241Z,48.31
2019-02-17T13:08:52.271Z,48.46
2019-02-17T13:11:21.280Z,48.15
2019-02-17T13:13:50.331Z,47.58
2019-02-17T13:16:19.462Z,48.04
2019-02-17T13:18:48.476Z,47.92
2019-02-17T13:21:17.597Z,46.03
2019-02-17T13:23:46.554Z,46.14
2019-02-17T13:26:15.659Z,46.74
2019-02-17T13:28:44.654Z,46.47
2019-02-17T13:31:13.714Z,47.04
2019-02-17T13:33:42.741Z,46.81
2019-02-17T13:36:11.915Z,46.83
2019-02-17T13:38:40.941Z,46.39
2019-02-17T13:41:09.948Z,47.00
2019-02-17T13:43:40.181Z,47.39
2019-02-17T13:46:09.195Z,47.39
2019-02-17T13:48:38.274Z,46.90
2019-02-17T13:51:07.359Z,47.50
2019-02-17T13:53:36.468Z,47.43
2019-02-17T13:56:05.526Z,47.43
2019-02-17T13:58:34.487Z,46.20
2019-02-17T14:01:03.579Z,46.75
2019-02-17T14:03:32.710Z,46.75
2019-02-17T14:06:02.850Z,46.82
2019-02-17T14:08:31.905Z,45.89
2019-02-17T14:11:01.075Z,46.33
2019-02-17T14:13:30.108Z,45.75
2019-02-17T14:15:59.152Z,46.56
2019-02-17T14:18:28.195Z,45.57
2019-02-17T14:20:57.307Z,45.57
2019-02-17T14:23:26.313Z,45.24
2019-02-17T14:25:55.433Z,45.79
2019-02-17T14:28:24.657Z,46.18
2019-02-17T14:30:53.657Z,45.02
2019-02-17T14:33:22.664Z,46.00
2019-02-17T14:35:51.736Z,46.05
2019-02-17T14:38:20.711Z,44.94
2019-02-17T14:40:49.734Z,47.38
2019-02-17T14:43:18.740Z,47.38
2019-02-17T14:45:48.825Z,45.44
2019-02-17T14:48:17.853Z,46.56
2019-02-17T14:50:46.889Z,46.11
2019-02-17T14:53:16.248Z,45.37
2019-02-17T14:55:45.550Z,45.59
2019-02-17T14:58:16.249Z,45.59
2019-02-17T15:00:45.301Z,47.26
2019-02-17T15:03:21.626Z,48.42
2019-02-17T15:06:33.685Z,48.79
2019-02-17T15:09:04.253Z,47.27
2019-02-17T15:11:35.559Z,48.12
2019-02-17T15:14:04.816Z,47.14
2019-02-17T15:20:17.778Z,47.76
2019-02-17T15:22:54.931Z,48.59
2019-02-17T15:25:24.167Z,48.55
2019-02-17T15:27:53.367Z,49.19
2019-02-17T15:30:22.487Z,48.32
2019-02-17T15:32:53.025Z,49.91
2019-02-17T15:35:25.033Z,49.03
2019-02-17T15:37:56.427Z,49.44
2019-02-17T15:40:25.557Z,49.68
2019-02-17T15:42:54.662Z,49.44
2019-02-17T15:45:23.890Z,49.44
2019-02-17T15:47:52.972Z,50.24
2019-02-17T15:50:23.569Z,51.36
2019-02-17T15:52:54.919Z,51.12
2019-02-17T15:55:24.210Z,51.63
2019-02-17T15:57:53.226Z,51.72
2019-02-17T16:00:22.436Z,51.81
2019-02-17T16:02:51.499Z,52.97
2019-02-17T16:05:20.612Z,52.39
2019-02-17T16:07:49.658Z,53.27
2019-02-17T16:10:18.813Z,53.31
2019-02-17T16:12:48.209Z,52.72
2019-02-17T16:15:17.481Z,53.90
2019-02-17T16:17:46.626Z,54.01
2019-02-17T16:20:15.922Z,53.93
2019-02-17T16:22:51.590Z,54.10
2019-02-17T16:25:22.230Z,54.10
2019-02-17T16:27:51.552Z,54.32
2019-02-17T16:30:24.620Z,55.27
2019-02-17T16:33:54.417Z,55.27
2019-02-17T16:39:31.558Z,56.69
2019-02-17T16:42:00.590Z,57.05
2019-02-17T16:44:29.711Z,57.05
2019-02-17T16:46:58.737Z,58.03
2019-02-17T16:49:27.784Z,57.91
2019-02-17T16:51:58.422Z,58.61
2019-02-17T16:54:27.545Z,59.53
2019-02-17T16:56:56.554Z,59.26
2019-02-17T16:59:25.644Z,58.80
2019-02-17T17:01:55.297Z,59.38
2019-02-17T17:04:24.477Z,60.43
2019-02-17T17:06:53.582Z,59.79
2019-02-17T17:09:22.676Z,60.71
2019-02-17T17:11:51.721Z,60.76
2019-02-17T17:14:20.846Z,60.98
2019-02-17T17:16:49.842Z,61.70
2019-02-17T17:19:18.933Z,61.70
2019-02-17T17:21:48.003Z,61.68
2019-02-17T17:24:17.150Z,61.23
2019-02-17T17:26:46.229Z,61.23
2019-02-17T17:29:15.232Z,60.92
2019-02-17T17:31:44.272Z,62.04
2019-02-17T17:34:13.436Z,61.53
2019-02-17T17:36:42.441Z,61.53
2019-02-17T17:39:11.541Z,61.28
2019-02-17T17:41:40.608Z,60.43
2019-02-17T17:44:09.635Z,61.06
2019-02-17T17:46:38.776Z,61.88
2019-02-17T17:49:07.778Z,61.72
2019-02-17T17:51:36.780Z,62.05
2019-02-17T17:54:05.806Z,62.11
2019-02-17T17:56:34.807Z,62.07
2019-02-17T17:59:03.972Z,63.24
2019-02-17T18:01:32.997Z,62.99
2019-02-17T18:04:02.039Z,63.34
2019-02-17T18:06:33.813Z,63.15
2019-02-17T18:09:02.805Z,66.97
2019-02-17T18:11:31.810Z,66.53
2019-02-17T18:14:00.836Z,63.02
2019-02-17T18:16:29.868Z,64.71
2019-02-17T18:18:58.944Z,66.17
2019-02-17T18:21:28.047Z,64.97
2019-02-17T18:23:57.179Z,64.94
2019-02-17T18:26:26.172Z,69.86
2019-02-17T18:28:55.201Z,69.58
2019-02-17T18:31:24.295Z,70.26
2019-02-17T18:33:53.353Z,71.27
2019-02-17T18:36:22.393Z,70.77
2019-02-17T18:38:51.424Z,71.49
2019-02-17T18:41:20.437Z,71.78
2019-02-17T18:43:50.475Z,71.94
2019-02-17T18:46:19.594Z,71.03
2019-02-17T18:48:49.659Z,71.03
2019-02-17T18:51:18.613Z,73.04
2019-02-17T18:53:49.926Z,73.29
2019-02-17T18:56:19.108Z,73.46
2019-02-17T18:58:48.410Z,70.50
2019-02-17T19:01:17.469Z,74.35
2019-02-17T19:03:46.551Z,73.90
2019-02-17T19:06:15.575Z,73.90
2019-02-17T19:08:44.613Z,75.95
2019-02-17T19:11:13.637Z,77.28
2019-02-17T19:13:42.733Z,77.28
2019-02-17T19:16:11.714Z,76.06
2019-02-17T19:18:40.716Z,73.36
2019-02-17T19:21:09.761Z,70.54
2019-02-17T19:23:40.081Z,68.94
2019-02-17T19:26:09.224Z,68.50
2019-02-17T19:28:38.320Z,69.06
2019-02-17T19:31:07.520Z,69.06
2019-02-17T19:33:36.562Z,69.82
2019-02-17T19:36:08.455Z,73.69
2019-02-17T19:38:37.505Z,74.67
2019-02-17T19:41:06.772Z,73.56
2019-02-17T19:43:35.828Z,74.09
2019-02-17T19:46:04.849Z,72.19
2019-02-17T19:48:33.962Z,73.57
2019-02-17T19:51:05.354Z,71.76
2019-02-17T19:53:34.413Z,73.19
2019-02-17T19:56:03.577Z,72.62
2019-02-17T19:58:32.673Z,70.63
2019-02-17T20:01:01.905Z,69.07
2019-02-17T20:03:46.121Z,68.15
2019-02-17T20:06:17.315Z,66.43
2019-02-17T20:08:46.315Z,65.95
2019-02-17T20:11:15.400Z,65.80
2019-02-17T20:13:44.469Z,65.72
2019-02-17T20:16:13.495Z,72.53
2019-02-17T20:18:42.537Z,75.70
2019-02-17T20:21:11.615Z,74.85
2019-02-17T20:23:40.632Z,73.94
2019-02-17T20:26:09.686Z,73.98
2019-02-17T20:28:43.409Z,71.62
2019-02-17T20:31:09.543Z,73.28
2019-02-17T20:33:38.590Z,74.81
2019-02-17T20:36:07.725Z,73.81
2019-02-17T20:38:36.811Z,73.81
2019-02-17T20:41:06.094Z,72.42
2019-02-17T20:43:37.475Z,72.42
2019-02-17T20:46:06.627Z,66.59
2019-02-17T20:48:35.633Z,65.76
2019-02-17T20:51:04.740Z,64.76
2019-02-17T20:53:33.750Z,64.32
2019-02-17T20:56:03.132Z,64.32
2019-02-17T20:58:32.166Z,64.52
2019-02-17T21:01:01.377Z,66.67
2019-02-17T21:03:30.488Z,65.38
2019-02-17T21:05:59.579Z,65.79
2019-02-17T21:08:28.654Z,66.12
2019-02-17T21:10:57.715Z,70.03
2019-02-17T21:13:26.835Z,70.03
2019-02-17T21:15:55.822Z,65.61
2019-02-17T21:18:24.965Z,68.14
2019-02-17T21:20:54.079Z,70.29
2019-02-17T21:23:23.197Z,70.18
2019-02-17T21:25:52.248Z,70.99
2019-02-17T21:28:22.672Z,65.40
2019-02-17T21:30:51.793Z,72.31
2019-02-17T21:33:20.885Z,66.12
2019-02-17T21:35:50.102Z,74.06
2019-02-17T21:38:20.765Z,71.14
2019-02-17T21:40:49.824Z,70.38
2019-02-17T21:43:18.942Z,77.36
2019-02-17T21:45:48.041Z,70.29
2019-02-17T21:48:17.154Z,70.29
2019-02-17T21:50:46.444Z,72.30
2019-02-17T21:53:20.245Z,71.81
2019-02-17T21:56:17.375Z,68.06
2019-02-17T21:58:46.497Z,66.09
2019-02-17T22:01:16.945Z,66.71
2019-02-17T22:03:55.807Z,66.04
2019-02-17T22:06:33.413Z,66.04
2019-02-17T22:09:01.524Z,73.99
2019-02-17T22:11:31.913Z,72.50
2019-02-17T22:14:30.058Z,68.45
2019-02-17T22:18:03.265Z,69.38
2019-02-17T22:20:43.684Z,75.51
2019-02-17T22:23:40.916Z,75.51
2019-02-17T22:31:28.720Z,71.96
2019-02-17T22:33:32.653Z,76.84
2019-02-17T22:36:12.513Z,74.17
2019-02-17T22:38:41.788Z,75.66
2019-02-17T22:41:11.003Z,75.39
2019-02-17T22:43:40.243Z,71.77
2019-02-17T22:46:09.291Z,70.85
2019-02-17T22:48:38.482Z,73.87
2019-02-17T22:51:07.675Z,74.25
2019-02-17T22:53:43.417Z,74.04
2019-02-17T22:56:07.638Z,75.39
2019-02-17T22:58:36.763Z,76.71
2019-02-17T23:01:09.106Z,75.02
2019-02-17T23:03:38.222Z,76.29
2019-02-17T23:06:07.382Z,73.62
2019-02-17T23:08:36.596Z,76.00
2019-02-17T23:11:05.755Z,76.29
2019-02-17T23:13:34.807Z,75.20
2019-02-17T23:16:03.922Z,77.27
2019-02-17T23:18:33.034Z,77.47
2019-02-17T23:21:02.124Z,77.56
2019-02-17T23:23:31.216Z,76.47
2019-02-17T23:26:00.273Z,73.55
2019-02-17T23:28:29.313Z,73.23
2019-02-17T23:30:58.437Z,71.79
2019-02-17T23:33:27.453Z,77.21
2019-02-17T23:35:56.489Z,77.75
2019-02-17T23:38:25.548Z,78.38
2019-02-17T23:40:54.583Z,77.68
2019-02-17T23:43:23.782Z,77.89
2019-02-17T23:45:52.861Z,77.32
2019-02-17T23:48:21.922Z,78.12
2019-02-17T23:50:52.190Z,79.05
2019-02-17T23:53:21.286Z,81.59
2019-02-17T23:55:50.376Z,78.98
2019-02-17T23:58:19.470Z,80.99
